バクー の空港の天気 - METARとTAF

ヘイダル・アリエフ国際空港(バクー) ( UBBB / BAK ) - アゼルバイジャン バクー
飛行場実況気象(Metar)
観測時間05/28 14:00 AZT (05/28 10:00 UTC)
風向・風速南南東 8m/s
視程10km以上
天気現象
なし
気温23℃
湿度38%
気圧1018hPa
METARUBBB 281000Z 16016KT CAVOK 23/08 Q1018 NOSIG
過去の天気等 Google飛行場航空写真 Wunderground天気予報

過去48時間のMETAR

飛行場予報(TAF)
発表時間: 5/28 09:12 AZT (5/28 05:12 UTC)
予報対象時間: 28日10時 AZT ~ 29日10時 AZT
風向・風速南 6m/s
視程10km以上
なし
28日10時 AZT ~ 28日18時 AZT に一時的に
風向・風速南南東 9m/s
28日18時 AZT ~ 28日20時 AZT に徐々に
風向・風速南 3m/s
28日20時 AZT ~ 29日6時 AZT に一時的に
風向・風速不定 2m/s
全天の4割程度の雲 雲底高度 370m
TAF UBBB 280512Z 2806/2906 19012KT CAVOK TX24/2811Z TN14/2902Z
TEMPO 2806/2814 16018KT
BECMG 2814/2816 18005KT
TEMPO 2816/2902 VRB04KT SCT012